Time;durP1;ratioP1;P1;durP2;ratioP2;P2;SDS_P1;SDS_P2;PMS_P1;PMS_P2;Temp;Humidity;BMP_temperature;BMP_pressure;BME280_temperature;BME280_humidity;BME280_pressure;Samples;Min_cycle;Max_cycle;Signal;HPM_P1;HPM_P2
2021/09/24 00:00:13;;;;;;;1.80;1.60;;;;;;;9.72;80.97;97918.95;111619;1197;73445;-22
2021/09/24 00:02:41;;;;;;;4.20;2.60;;;;;;;9.86;80.60;97910.36;111629;1187;61446;-22
2021/09/24 00:05:10;;;;;;;4.90;3.20;;;;;;;10.00;80.04;97900.13;111939;1193;60911;-22
2021/09/24 00:07:39;;;;;;;4.40;2.60;;;;;;;10.01;79.72;97893.81;112122;1193;75204;-22
2021/09/24 00:10:29;;;;;;;5.30;2.30;;;;;;;9.69;81.04;97888.37;112076;1196;76939;-23
2021/09/24 00:13:17;;;;;;;3.00;2.60;;;;;;;9.82;80.73;97880.38;112045;1194;74036;-22
2021/09/24 00:15:46;;;;;;;2.80;2.00;;;;;;;10.01;80.12;97877.15;112027;1196;60905;-23
2021/09/24 00:18:15;;;;;;;7.10;3.00;;;;;;;9.80;80.31;97871.02;111889;1195;60852;-23
2021/09/24 00:20:45;;;;;;;4.70;2.90;;;;;;;9.72;80.78;97875.09;112037;1196;75182;-22
2021/09/24 00:23:33;;;;;;;4.90;3.10;;;;;;;9.94;80.31;97865.50;112045;1196;76882;-23
2021/09/24 00:26:03;;;;;;;4.00;3.10;;;;;;;10.10;79.46;97851.17;112140;1196;74046;-24
2021/09/24 00:28:31;;;;;;;5.60;3.30;;;;;;;9.80;80.67;97847.49;112425;1193;60949;-24
2021/09/24 00:31:17;;;;;;;3.30;2.00;;;;;;;9.53;81.58;97839.83;112327;1193;60835;-25
2021/09/24 00:33:45;;;;;;;4.00;2.50;;;;;;;9.72;81.07;97830.50;112478;1193;74213;-25
2021/09/24 00:36:13;;;;;;;4.30;3.10;;;;;;;9.82;80.64;97825.44;112398;1193;74402;-25
2021/09/24 00:39:02;;;;;;;5.30;3.60;;;;;;;9.65;81.13;97820.18;112374;1193;74421;-24
2021/09/24 00:41:30;;;;;;;3.70;2.70;;;;;;;9.49;81.93;97817.50;112418;1193;62384;-24
2021/09/24 00:44:01;;;;;;;3.50;2.20;;;;;;;9.73;81.11;97814.48;112488;1193;60883;-24
2021/09/24 00:46:29;;;;;;;4.00;3.00;;;;;;;9.72;81.04;97807.20;112178;1193;75166;-24
2021/09/24 00:49:12;;;;;;;5.40;2.30;;;;;;;9.50;81.68;97794.21;112480;1190;76036;-24
2021/09/24 00:52:00;;;;;;;3.70;2.60;;;;;;;9.47;82.25;97793.45;112444;1190;74246;-23
2021/09/24 00:54:29;;;;;;;8.00;3.30;;;;;;;9.63;81.50;97780.67;112496;1189;60812;-23
2021/09/24 00:57:01;;;;;;;4.80;3.20;;;;;;;9.55;81.67;97782.79;112513;1190;60782;-23
2021/09/24 00:59:34;;;;;;;5.40;2.80;;;;;;;9.28;82.66;97780.52;112445;1190;74369;-23
2021/09/24 01:02:05;;;;;;;3.00;2.40;;;;;;;9.55;81.96;97778.15;112497;1190;72600;-23
2021/09/24 01:04:46;;;;;;;6.80;3.30;;;;;;;9.62;81.62;97772.29;112489;1190;73159;-23
2021/09/24 01:07:14;;;;;;;5.80;2.50;;;;;;;9.61;81.19;97770.66;112518;1190;60780;-23
2021/09/24 01:09:43;;;;;;;6.20;2.80;;;;;;;9.49;82.04;97774.01;112494;1190;60817;-23
2021/09/24 01:12:28;;;;;;;4.70;3.20;;;;;;;9.66;81.53;97766.32;112548;1189;74963;-25
2021/09/24 01:14:58;;;;;;;5.40;2.90;;;;;;;9.68;81.46;97766.83;112385;1192;74561;-24
2021/09/24 01:17:27;;;;;;;3.90;2.90;;;;;;;9.42;82.40;97763.42;112483;1192;73031;-23
2021/09/24 01:19:55;;;;;;;6.10;4.10;;;;;;;9.45;82.70;97752.92;112604;1190;60780;-23
2021/09/24 01:22:25;;;;;;;6.80;3.40;;;;;;;9.57;82.02;97741.36;112400;1193;60799;-23
2021/09/24 01:24:53;;;;;;;5.00;3.30;;;;;;;9.56;81.67;97737.20;112497;1192;75167;-23
2021/09/24 01:27:21;;;;;;;4.60;2.60;;;;;;;9.28;83.25;97732.76;112482;1190;73562;-23
2021/09/24 01:29:50;;;;;;;7.10;4.20;;;;;;;9.42;82.80;97720.67;112478;1190;74085;-23
2021/09/24 01:32:38;;;;;;;4.50;3.40;;;;;;;9.46;82.58;97719.23;112257;1190;61977;-24
2021/09/24 01:35:08;;;;;;;2.90;2.20;;;;;;;9.41;82.84;97709.54;112473;1190;60914;-24
2021/09/24 01:37:36;;;;;;;5.50;2.40;;;;;;;9.37;83.09;97706.06;112482;1190;75059;-22
2021/09/24 01:40:11;;;;;;;5.90;2.80;;;;;;;9.64;82.23;97695.86;112431;1190;74677;-23
2021/09/24 01:42:41;;;;;;;5.60;3.40;;;;;;;9.51;82.40;97691.23;112462;1192;72998;-22
2021/09/24 01:45:10;;;;;;;2.70;2.00;;;;;;;9.22;83.45;97687.27;112440;1190;61982;-22
2021/09/24 01:47:38;;;;;;;5.50;3.50;;;;;;;9.38;83.19;97677.61;112446;1190;60944;-22
2021/09/24 01:50:10;;;;;;;4.60;2.40;;;;;;;9.62;82.32;97674.90;112549;1190;75132;-22
2021/09/24 01:52:58;;;;;;;6.20;4.20;;;;;;;9.57;82.36;97670.73;112462;1190;77105;-22
2021/09/24 01:55:40;;;;;;;4.60;3.10;;;;;;;9.34;83.36;97671.02;112337;1193;72609;-22
2021/09/24 01:58:08;;;;;;;6.50;3.10;;;;;;;9.81;81.74;97671.95;112364;1193;61770;-22
2021/09/24 02:00:36;;;;;;;5.50;3.70;;;;;;;9.61;82.14;97663.77;112395;1193;61371;-22
2021/09/24 02:03:06;;;;;;;3.40;2.60;;;;;;;9.35;83.36;97643.92;112402;1193;75554;-22
2021/09/24 02:05:35;;;;;;;7.70;4.00;;;;;;;9.40;83.15;97637.52;112372;1193;75837;-22
2021/09/24 02:08:23;;;;;;;4.10;2.60;;;;;;;9.70;81.91;97625.94;112354;1192;75221;-22
2021/09/24 02:11:07;;;;;;;3.60;2.60;;;;;;;9.44;83.16;97609.08;111977;1196;61472;-22
2021/09/24 02:13:37;;;;;;;5.50;4.10;;;;;;;9.35;83.67;97602.42;112075;1196;60917;-22
2021/09/24 02:16:06;;;;;;;6.50;4.80;;;;;;;9.56;82.85;97591.86;111908;1196;75214;-21
2021/09/24 02:18:34;;;;;;;7.60;3.80;;;;;;;9.49;83.06;97582.80;112090;1187;75698;-21
2021/09/24 02:21:05;;;;;;;6.90;4.40;;;;;;;9.33;83.72;97579.04;111990;1197;74090;-21
2021/09/24 02:23:35;;;;;;;8.10;4.40;;;;;;;9.45;83.46;97579.06;112029;1195;60802;-21
2021/09/24 02:26:04;;;;;;;4.70;2.90;;;;;;;9.47;83.41;97560.98;112031;1195;61657;-20
2021/09/24 02:28:33;;;;;;;4.40;3.30;;;;;;;9.31;84.09;97560.25;112093;1196;74395;-20
2021/09/24 02:31:01;;;;;;;5.60;3.50;;;;;;;9.40;83.65;97538.98;111921;1193;74973;-19
2021/09/24 02:33:50;;;;;;;7.60;4.40;;;;;;;9.63;82.81;97536.15;112007;1193;74171;-20
2021/09/24 02:36:18;;;;;;;3.90;2.90;;;;;;;9.40;83.81;97535.20;112016;1193;60807;-19
2021/09/24 02:38:46;;;;;;;4.90;3.30;;;;;;;9.21;84.85;97537.29;112003;1194;60813;-19
2021/09/24 02:41:15;;;;;;;5.60;3.70;;;;;;;9.45;84.40;97537.45;112084;1193;72485;-20
2021/09/24 02:43:44;;;;;;;5.00;3.50;;;;;;;9.66;83.28;97534.19;112444;1192;74216;-20
2021/09/24 02:46:13;;;;;;;8.50;3.20;;;;;;;9.53;83.56;97523.98;112467;1192;73987;-20
2021/09/24 02:49:01;;;;;;;4.60;2.80;;;;;;;9.67;83.81;97520.37;112293;1192;61596;-20
2021/09/24 02:51:29;;;;;;;5.20;2.80;;;;;;;9.68;83.73;97520.58;112464;1193;60820;-20
2021/09/24 02:54:08;;;;;;;6.10;4.30;;;;;;;9.78;83.24;97517.45;112518;1193;75232;-20
2021/09/24 02:56:37;;;;;;;7.10;5.00;;;;;;;9.65;83.98;97513.77;112365;1193;74642;-20
2021/09/24 02:59:05;;;;;;;6.40;3.20;;;;;;;9.81;83.17;97515.09;112432;1193;73670;-20
2021/09/24 03:01:49;;;;;;;4.40;3.50;;;;;;;9.69;83.37;97513.04;112255;1192;60880;-20
2021/09/24 03:04:18;;;;;;;4.40;2.20;;;;;;;9.55;84.28;97495.58;112458;1192;60783;-20
2021/09/24 03:06:47;;;;;;;4.50;2.20;;;;;;;9.81;83.26;97488.64;112483;1191;74917;-20
2021/09/24 03:09:18;;;;;;;4.90;3.40;;;;;;;9.81;83.15;97484.97;112496;1192;74278;-20
2021/09/24 03:11:47;;;;;;;3.90;2.40;;;;;;;9.74;83.62;97477.54;112350;1193;73571;-20
2021/09/24 03:14:16;;;;;;;6.60;4.20;;;;;;;9.82;83.46;97468.42;112451;1191;60808;-20
2021/09/24 03:17:04;;;;;;;3.80;2.90;;;;;;;9.88;83.02;97451.54;112354;1188;62804;-20
2021/09/24 03:19:32;;;;;;;4.40;3.40;;;;;;;9.77;83.10;97445.18;112399;1192;74940;-20
2021/09/24 03:22:01;;;;;;;8.10;4.30;;;;;;;9.83;83.05;97439.34;112429;1190;75449;-20
2021/09/24 03:24:29;;;;;;;6.60;4.10;;;;;;;9.84;82.84;97426.58;112405;1190;73055;-20
2021/09/24 03:27:17;;;;;;;5.30;4.30;;;;;;;9.94;82.56;97415.45;112449;1190;62412;-20
2021/09/24 03:29:45;;;;;;;5.20;3.40;;;;;;;9.71;83.21;97408.52;112445;1190;60832;-20
2021/09/24 03:32:18;;;;;;;5.30;3.10;;;;;;;9.75;83.65;97399.69;112454;1190;74457;-19
2021/09/24 03:35:07;;;;;;;5.30;3.90;;;;;;;10.06;82.29;97395.17;112469;1189;77016;-19
2021/09/24 03:37:40;;;;;;;;;;;;;;;9.90;82.41;97403.16;112469;1190;73175;-20
2021/09/24 03:40:09;;;;;;;5.70;4.20;;;;;;;9.80;83.12;97387.15;112504;1190;63585;-19
2021/09/24 03:42:37;;;;;;;8.00;5.00;;;;;;;9.95;82.35;97379.67;112394;1190;60765;-19
2021/09/24 03:45:06;;;;;;;3.20;2.70;;;;;;;10.11;81.69;97389.67;112542;1190;75276;-20
2021/09/24 03:47:35;;;;;;;6.50;4.10;;;;;;;9.79;83.18;97377.08;112440;1192;74810;-20
2021/09/24 03:50:03;;;;;;;8.00;2.30;;;;;;;9.90;83.02;97386.41;112482;1190;74117;-19
2021/09/24 03:52:32;;;;;;;5.20;4.10;;;;;;;9.88;82.61;97385.92;112500;1189;60819;-20
2021/09/24 03:55:20;;;;;;;3.60;2.60;;;;;;;9.71;83.51;97369.18;112414;1190;62915;-19
2021/09/24 03:57:52;;;;;;;8.80;5.80;;;;;;;9.90;82.83;97379.65;112464;1190;74356;-20
2021/09/24 04:00:21;;;;;;;9.10;3.10;;;;;;;9.88;82.88;97379.07;112452;1192;75622;-19
2021/09/24 04:02:49;;;;;;;4.80;4.00;;;;;;;9.97;82.32;97390.06;112471;1190;73511;-20
2021/09/24 04:05:18;;;;;;;2.50;2.00;;;;;;;9.69;83.64;97387.56;112482;1190;62083;-19
2021/09/24 04:08:06;;;;;;;6.10;3.60;;;;;;;10.09;81.99;97374.77;112504;1189;61222;-20
2021/09/24 04:10:34;;;;;;;5.30;3.80;;;;;;;9.78;83.09;97373.99;112468;1193;75418;-20
2021/09/24 04:13:06;;;;;;;4.30;3.50;;;;;;;9.83;83.15;97375.06;112516;1190;75668;-20
2021/09/24 04:15:34;;;;;;;5.90;4.90;;;;;;;9.81;83.04;97360.52;112507;1190;72939;-20
2021/09/24 04:18:03;;;;;;;4.10;3.20;;;;;;;9.93;82.84;97367.92;112554;1190;60722;-20
2021/09/24 04:20:32;;;;;;;4.30;3.00;;;;;;;9.78;83.85;97363.11;112545;1190;60910;-20
2021/09/24 04:23:00;;;;;;;3.70;2.50;;;;;;;9.99;83.43;97374.59;112560;1190;75195;-20
2021/09/24 04:25:29;;;;;;;6.20;2.60;;;;;;;10.27;81.79;97369.37;112531;1190;74430;-20
2021/09/24 04:27:58;;;;;;;3.60;2.40;;;;;;;10.02;82.78;97367.15;112349;1193;72052;-20
2021/09/24 04:30:27;;;;;;;2.80;2.20;;;;;;;9.90;83.40;97356.98;112478;1190;62370;-20
2021/09/24 04:32:55;;;;;;;6.60;3.70;;;;;;;10.08;82.82;97357.00;112474;1189;61339;-20
2021/09/24 04:35:24;;;;;;;5.20;3.40;;;;;;;10.15;82.61;97351.54;112496;1192;74031;-20
2021/09/24 04:37:52;;;;;;;4.10;2.30;;;;;;;10.11;82.87;97353.07;112434;1190;75391;-20
2021/09/24 04:40:21;;;;;;;4.20;2.70;;;;;;;10.37;82.13;97344.04;112518;1190;73266;-20
2021/09/24 04:43:02;;;;;;;3.60;3.00;;;;;;;10.70;81.10;97329.75;112387;1190;60861;-20
2021/09/24 04:45:31;;;;;;;4.30;2.70;;;;;;;10.42;81.89;97315.80;112463;1190;60835;-20
2021/09/24 04:47:59;;;;;;;6.50;4.40;;;;;;;10.36;82.54;97324.08;112486;1190;74012;-20
2021/09/24 04:50:28;;;;;;;5.40;2.70;;;;;;;10.39;82.06;97320.55;112532;1189;75506;-20
2021/09/24 04:52:56;;;;;;;6.60;4.60;;;;;;;10.56;81.58;97308.79;112426;1190;73173;-20
2021/09/24 04:55:24;;;;;;;4.80;3.10;;;;;;;10.49;81.51;97312.30;112391;1190;60962;-20
2021/09/24 04:58:10;;;;;;;8.90;4.50;;;;;;;10.34;82.21;97307.09;112469;1190;61704;-21
2021/09/24 05:00:40;;;;;;;4.60;3.60;;;;;;;10.58;81.62;97304.50;112456;1190;74377;-20
2021/09/24 05:03:08;;;;;;;5.00;3.10;;;;;;;10.44;82.10;97299.99;112514;1190;77570;-21
2021/09/24 05:05:36;;;;;;;8.70;4.00;;;;;;;10.53;82.01;97295.57;112607;1190;73895;-20
2021/09/24 05:08:25;;;;;;;3.90;2.70;;;;;;;10.98;80.14;97295.13;112434;1190;62908;-20
2021/09/24 05:10:59;;;;;;;5.50;3.20;;;;;;;10.79;80.61;97298.25;112395;1190;60891;-21
2021/09/24 05:13:29;;;;;;;3.40;2.30;;;;;;;10.58;81.84;97303.73;112491;1190;75121;-20
2021/09/24 05:15:57;;;;;;;3.90;2.50;;;;;;;10.80;81.61;97295.52;112543;1190;75710;-20
2021/09/24 05:18:38;;;;;;;5.00;2.70;;;;;;;10.97;80.44;97297.97;112350;1190;73156;-21
2021/09/24 05:21:06;;;;;;;4.10;2.60;;;;;;;10.83;80.66;97294.16;112448;1192;60806;-21
2021/09/24 05:23:39;;;;;;;6.10;2.60;;;;;;;10.76;81.54;97306.08;112428;1190;60808;-21
2021/09/24 05:26:08;;;;;;;6.20;2.50;;;;;;;10.95;80.85;97296.96;112471;1190;74993;-21
2021/09/24 05:28:57;;;;;;;3.40;2.60;;;;;;;10.79;81.38;97271.58;112371;1191;76803;-21
2021/09/24 05:31:25;;;;;;;2.60;1.80;;;;;;;10.59;82.12;97286.70;112434;1190;73032;-21
2021/09/24 05:33:54;;;;;;;6.00;2.00;;;;;;;10.74;81.99;97291.69;112482;1190;60736;-21
2021/09/24 05:36:23;;;;;;;3.80;2.70;;;;;;;11.13;80.97;97300.98;112466;1190;61215;-21
2021/09/24 05:38:51;;;;;;;10.10;2.80;;;;;;;11.24;80.22;97294.90;112521;1184;75061;-21
2021/09/24 05:41:39;;;;;;;2.10;1.70;;;;;;;11.02;81.24;97296.91;112346;1192;73073;-22
2021/09/24 05:44:07;;;;;;;2.80;1.70;;;;;;;11.17;81.05;97290.27;112380;1192;73538;-21
2021/09/24 05:46:36;;;;;;;3.70;2.30;;;;;;;11.54;79.67;97287.07;112377;1192;60891;-22
2021/09/24 05:49:05;;;;;;;2.70;2.20;;;;;;;11.55;79.57;97290.38;112228;1192;60824;-23
2021/09/24 05:51:37;;;;;;;2.80;2.00;;;;;;;11.34;80.02;97275.23;112371;1193;75080;-20
2021/09/24 05:54:05;;;;;;;2.10;1.70;;;;;;;11.37;80.33;97283.15;112339;1192;75991;-20
2021/09/24 05:56:47;;;;;;;2.90;1.80;;;;;;;11.54;79.76;97280.10;112081;1193;71089;-20
2021/09/24 05:59:15;;;;;;;5.10;2.20;;;;;;;11.56;79.70;97281.77;112076;1193;61569;-20
2021/09/24 06:01:47;;;;;;;1.70;1.10;;;;;;;11.46;79.91;97272.23;112115;1193;60956;-20
2021/09/24 06:04:19;;;;;;;3.00;1.50;;;;;;;11.53;80.60;97269.02;112153;1193;74093;-20
2021/09/24 06:06:47;;;;;;;3.00;1.90;;;;;;;11.78;79.33;97268.66;112101;1193;74656;-20
2021/09/24 06:09:16;;;;;;;3.30;2.30;;;;;;;11.75;79.45;97274.42;112119;1193;73897;-20
2021/09/24 06:11:58;;;;;;;2.80;1.60;;;;;;;11.52;80.27;97279.27;111834;1196;60808;-20
2021/09/24 06:14:26;;;;;;;2.50;1.30;;;;;;;11.53;80.74;97284.31;112028;1196;60800;-20
2021/09/24 06:17:15;;;;;;;3.10;2.00;;;;;;;11.83;79.68;97286.84;112012;1196;76622;-21
2021/09/24 06:19:43;;;;;;;4.20;2.40;;;;;;;11.69;80.30;97295.63;112007;1195;75330;-20
2021/09/24 06:22:32;;;;;;;2.90;1.70;;;;;;;11.40;81.96;97307.50;111993;1195;74205;-19
2021/09/24 06:25:00;;;;;;;2.00;1.50;;;;;;;11.29;82.43;97315.15;112040;1195;62340;-18
2021/09/24 06:27:30;;;;;;;1.50;1.20;;;;;;;11.49;81.51;97305.60;111963;1195;61433;-21
2021/09/24 06:29:59;;;;;;;5.20;1.30;;;;;;;11.26;78.73;97304.95;112049;1195;74199;-17
2021/09/24 06:32:27;;;;;;;3.30;1.30;;;;;;;11.00;79.76;97317.62;111985;1195;74546;-24
2021/09/24 06:34:57;;;;;;;3.20;1.40;;;;;;;10.64;81.08;97313.96;112038;1192;73465;-20
2021/09/24 06:37:25;;;;;;;2.80;1.10;;;;;;;10.69;82.14;97322.72;112198;1192;62233;-20
2021/09/24 06:39:54;;;;;;;3.80;1.40;;;;;;;11.10;80.10;97325.19;112105;1193;60774;-20
2021/09/24 06:42:23;;;;;;;2.00;0.90;;;;;;;11.13;79.93;97332.17;112236;1192;75169;-20
2021/09/24 06:44:53;;;;;;;3.90;1.80;;;;;;;11.14;79.70;97328.85;112480;1190;74753;-23
2021/09/24 06:47:31;;;;;;;2.90;1.40;;;;;;;11.00;80.74;97327.91;112379;1190;73055;-22
2021/09/24 06:49:59;;;;;;;3.40;1.50;;;;;;;11.34;80.47;97327.79;112497;1190;61693;-22
2021/09/24 06:52:29;;;;;;;3.20;1.80;;;;;;;11.60;79.61;97326.88;112507;1190;61735;-22
2021/09/24 06:54:59;;;;;;;2.50;1.40;;;;;;;11.49;79.71;97325.77;112270;1190;72835;-23
2021/09/24 06:57:27;;;;;;;1.60;1.20;;;;;;;11.46;79.69;97329.48;112269;1190;73073;-22
2021/09/24 06:59:55;;;;;;;2.70;1.50;;;;;;;11.34;79.90;97330.08;112450;1190;71460;-22
2021/09/24 07:02:24;;;;;;;3.10;1.40;;;;;;;11.62;78.54;97330.58;112521;1190;60832;-22
2021/09/24 07:04:53;;;;;;;3.60;1.50;;;;;;;11.83;77.41;97334.54;112577;1190;60803;-20
2021/09/24 07:07:21;;;;;;;3.70;1.70;;;;;;;11.75;78.20;97339.09;112505;1190;75151;-20
2021/09/24 07:09:49;;;;;;;4.50;1.00;;;;;;;11.64;78.60;97337.64;112479;1190;75372;-20
2021/09/24 07:12:18;;;;;;;2.10;1.50;;;;;;;11.70;77.53;97327.50;112429;1189;72986;-20
2021/09/24 07:14:46;;;;;;;2.60;1.20;;;;;;;11.92;75.83;97331.08;112478;1190;61250;-20
2021/09/24 07:17:15;;;;;;;2.70;1.00;;;;;;;11.93;75.91;97333.67;112451;1190;60773;-20
2021/09/24 07:19:48;;;;;;;;;;;;;;;11.75;75.84;97340.98;112398;1190;74347;-22
2021/09/24 07:22:17;;;;;;;3.00;1.20;;;;;;;11.57;75.89;97343.35;112476;1190;75899;-21
2021/09/24 07:24:48;;;;;;;2.50;0.90;;;;;;;11.37;76.78;97342.47;112468;1192;73922;-22
2021/09/24 07:27:34;;;;;;;2.70;1.20;;;;;;;11.75;74.74;97342.90;112421;1193;60719;-21
2021/09/24 07:30:04;;;;;;;7.80;1.50;;;;;;;11.85;73.15;97344.91;112417;1193;60995;-22
2021/09/24 07:32:32;;;;;;;2.80;1.00;;;;;;;11.55;73.45;97353.45;112446;1193;75275;-22
2021/09/24 07:35:00;;;;;;;6.20;1.50;;;;;;;11.31;74.25;97355.95;112399;1192;75137;-22
2021/09/24 07:37:29;;;;;;;3.30;0.80;;;;;;;11.11;73.09;97358.81;112451;1193;73109;-22
2021/09/24 07:39:57;;;;;;;3.80;0.90;;;;;;;10.99;72.53;97360.47;112397;1193;60843;-22
2021/09/24 07:42:26;;;;;;;2.20;1.00;;;;;;;11.23;71.92;97359.06;112431;1193;60810;-22
2021/09/24 07:44:55;;;;;;;4.80;0.60;;;;;;;11.41;71.36;97366.33;112450;1192;75618;-19
2021/09/24 07:47:42;;;;;;;3.60;1.30;;;;;;;11.46;71.87;97377.57;112437;1192;74087;-19
2021/09/24 07:50:10;;;;;;;2.60;0.80;;;;;;;11.38;72.79;97379.15;112447;1191;74082;-19
2021/09/24 07:52:38;;;;;;;2.60;1.00;;;;;;;11.36;72.18;97368.60;112391;1193;60955;-19
2021/09/24 07:55:08;;;;;;;3.20;1.00;;;;;;;11.29;73.16;97376.67;112415;1192;60981;-20
2021/09/24 07:57:38;;;;;;;3.20;1.10;;;;;;;11.75;71.66;97370.39;112392;1192;74198;-19
2021/09/24 08:00:08;;;;;;;3.50;1.10;;;;;;;12.10;69.38;97366.78;112386;1190;73478;-22
2021/09/24 08:02:37;;;;;;;5.20;1.80;;;;;;;12.26;69.86;97362.15;112478;1190;71492;-20
2021/09/24 08:05:06;;;;;;;4.90;1.10;;;;;;;11.93;69.95;97367.16;112455;1190;60817;-22
2021/09/24 08:07:35;;;;;;;3.90;1.10;;;;;;;11.82;70.42;97371.47;112399;1190;61426;-22
2021/09/24 08:10:04;;;;;;;4.70;1.10;;;;;;;11.69;71.77;97381.11;112508;1192;74901;-22
2021/09/24 08:12:32;;;;;;;3.00;1.00;;;;;;;11.61;71.06;97364.40;112413;1192;73914;-22
2021/09/24 08:15:17;;;;;;;5.80;0.70;;;;;;;11.60;70.96;97374.23;112443;1190;74360;-22
2021/09/24 08:17:45;;;;;;;3.20;1.10;;;;;;;11.93;68.78;97365.04;112546;1190;61756;-22
2021/09/24 08:20:29;;;;;;;4.80;0.80;;;;;;;12.20;68.67;97365.59;112491;1190;60821;-22
2021/09/24 08:22:58;;;;;;;3.40;0.80;;;;;;;12.23;67.78;97368.15;112504;1190;73760;-22
2021/09/24 08:25:26;;;;;;;4.10;1.10;;;;;;;12.24;67.56;97368.13;112519;1190;74496;-20
2021/09/24 08:27:55;;;;;;;2.30;0.60;;;;;;;12.65;68.80;97369.81;112376;1192;73399;-20
2021/09/24 08:30:25;;;;;;;6.40;0.90;;;;;;;13.10;67.70;97365.89;112532;1190;60820;-23
2021/09/24 08:32:54;;;;;;;0.50;0.30;;;;;;;12.88;66.17;97363.21;112417;1190;60814;-20
2021/09/24 08:35:23;;;;;;;3.60;0.70;;;;;;;12.71;66.19;97361.34;112213;1190;75985;-21
2021/09/24 08:37:52;;;;;;;6.00;0.90;;;;;;;12.96;66.47;97365.91;112472;1190;75714;-22
2021/09/24 08:40:23;;;;;;;3.20;1.00;;;;;;;13.40;65.49;97372.04;112493;1190;74300;-21
2021/09/24 08:42:51;;;;;;;3.10;0.70;;;;;;;13.07;64.86;97372.31;112221;1190;61471;-23
2021/09/24 08:45:26;;;;;;;3.00;0.60;;;;;;;12.73;66.98;97378.36;112360;1190;61828;-24
2021/09/24 08:48:05;;;;;;;2.90;0.70;;;;;;;12.74;66.77;97374.59;112262;1190;75150;-23
2021/09/24 08:50:37;;;;;;;4.80;0.90;;;;;;;12.33;66.77;97373.17;112338;1191;75699;-23
2021/09/24 08:53:07;;;;;;;1.30;0.60;;;;;;;12.08;67.52;97383.70;112183;1191;73827;-23
2021/09/24 08:55:36;;;;;;;1.60;0.70;;;;;;;12.04;68.15;97379.61;112188;1190;60896;-23
2021/09/24 08:58:05;;;;;;;2.60;0.80;;;;;;;12.21;66.82;97376.11;112522;1190;60803;-23
2021/09/24 09:00:35;;;;;;;4.00;0.80;;;;;;;12.33;65.74;97391.79;112536;1190;73925;-23
2021/09/24 09:03:07;;;;;;;2.70;0.90;;;;;;;12.41;66.68;97412.83;112531;1190;75715;-23
2021/09/24 09:05:43;;;;;;;3.60;1.00;;;;;;;12.30;67.26;97405.89;112438;1192;73645;-21
2021/09/24 09:08:30;;;;;;;5.60;0.70;;;;;;;12.15;67.84;97409.93;112128;1193;60938;-23
2021/09/24 09:11:13;;;;;;;2.20;0.60;;;;;;;11.95;68.28;97406.17;112159;1190;60863;-22
2021/09/24 09:14:02;;;;;;;6.10;1.00;;;;;;;11.94;68.29;97405.06;112210;1192;76376;-22
2021/09/24 09:16:34;;;;;;;3.10;0.90;;;;;;;11.95;68.22;97414.59;112346;1191;74045;-22
2021/09/24 09:19:08;;;;;;;3.20;0.90;;;;;;;12.26;67.42;97413.13;112208;1193;74284;-22
2021/09/24 09:21:56;;;;;;;2.60;0.80;;;;;;;12.34;66.90;97404.65;112485;1190;62840;-22
2021/09/24 09:24:26;;;;;;;2.40;0.60;;;;;;;12.11;67.68;97412.89;112207;1191;60890;-22
2021/09/24 09:27:17;;;;;;;3.90;0.70;;;;;;;12.12;67.43;97421.20;112409;1192;74220;-22
2021/09/24 09:30:03;;;;;;;2.70;0.90;;;;;;;12.08;66.70;97420.06;112225;1192;75682;-21
2021/09/24 09:32:32;;;;;;;10.10;1.50;;;;;;;12.33;66.13;97422.91;112238;1192;72659;-21
2021/09/24 09:35:01;;;;;;;2.80;0.80;;;;;;;13.03;64.20;97402.24;112473;1190;60858;-24
2021/09/24 09:37:30;;;;;;;3.70;1.10;;;;;;;13.03;64.46;97422.59;112488;1190;60761;-21
2021/09/24 09:40:06;;;;;;;2.20;0.70;;;;;;;12.72;65.09;97427.88;112196;1192;75344;-22
2021/09/24 09:42:39;;;;;;;2.60;0.80;;;;;;;12.60;65.56;97443.17;112471;1191;75688;-22
2021/09/24 09:45:10;;;;;;;4.50;0.70;;;;;;;12.24;66.43;97435.70;112221;1191;74191;-22
2021/09/24 09:47:40;;;;;;;1.80;0.90;;;;;;;11.90;68.50;97435.73;112216;1193;60847;-24
2021/09/24 09:50:08;;;;;;;1.90;0.80;;;;;;;11.33;70.85;97433.02;112263;1190;61981;-23
2021/09/24 09:53:13;;;;;;;4.80;0.90;;;;;;;11.32;71.98;97455.04;112377;1191;72714;-23
2021/09/24 09:56:03;;;;;;;3.90;0.80;;;;;;;11.19;73.06;97465.08;111684;1196;75575;-22
2021/09/24 09:58:36;;;;;;;4.30;1.00;;;;;;;11.22;73.04;97461.66;111542;1195;70310;-23
2021/09/24 10:01:10;;;;;;;3.70;0.90;;;;;;;11.43;73.12;97470.65;111759;1195;60955;-23
2021/09/24 10:03:39;;;;;;;1.50;0.50;;;;;;;11.57;72.38;97460.83;111564;1196;61435;-22
2021/09/24 10:06:26;;;;;;;4.80;1.10;;;;;;;12.27;69.37;97455.79;111845;1195;72187;-23
2021/09/24 10:09:00;;;;;;;1.00;0.60;;;;;;;12.44;68.39;97468.73;111661;1197;73913;-24
2021/09/24 10:11:33;;;;;;;3.50;0.70;;;;;;;12.66;67.42;97454.59;111593;1196;72223;-22
2021/09/24 10:14:11;;;;;;;1.30;0.70;;;;;;;12.63;67.65;97472.22;111740;1195;60826;-22
2021/09/24 10:16:47;;;;;;;3.50;1.10;;;;;;;12.57;67.64;97478.16;111576;1196;61682;-23
2021/09/24 10:19:15;;;;;;;2.20;0.90;;;;;;;12.52;67.52;97474.09;111611;1196;75247;-22
2021/09/24 10:21:54;;;;;;;4.90;0.90;;;;;;;12.43;67.21;97462.95;111903;1194;77538;-22
2021/09/24 10:24:22;;;;;;;1.70;1.00;;;;;;;12.40;67.35;97458.56;112074;1193;73061;-22
2021/09/24 10:26:57;;;;;;;2.30;0.80;;;;;;;12.52;66.86;97456.08;112080;1193;61087;-22
2021/09/24 10:29:29;;;;;;;6.50;1.00;;;;;;;13.26;65.21;97466.96;112040;1196;61279;-24
2021/09/24 10:32:25;;;;;;;5.10;1.10;;;;;;;13.78;63.16;97468.83;112231;1192;74204;-24
2021/09/24 10:35:08;;;;;;;5.00;1.10;;;;;;;13.50;62.70;97465.60;112456;1192;74707;-23
2021/09/24 10:37:41;;;;;;;3.60;1.20;;;;;;;13.39;63.18;97456.41;112290;1192;74073;-24
2021/09/24 10:40:31;;;;;;;8.90;1.40;;;;;;;13.45;63.10;97476.47;112175;1192;61598;-23
2021/09/24 10:43:20;;;;;;;3.60;1.00;;;;;;;13.46;63.15;97485.19;111747;1195;62389;-23
2021/09/24 10:45:49;;;;;;;8.10;1.10;;;;;;;13.38;63.47;97482.36;111829;1196;75039;-24
2021/09/24 10:48:19;;;;;;;4.70;1.10;;;;;;;12.95;63.71;97479.73;111897;1196;75317;-23
2021/09/24 10:50:56;;;;;;;4.30;1.20;;;;;;;12.81;63.61;97472.48;111599;1198;74067;-23
2021/09/24 10:53:36;;;;;;;4.70;1.60;;;;;;;12.51;64.43;97474.35;111623;1197;60938;-23
2021/09/24 10:56:05;;;;;;;3.10;1.00;;;;;;;12.54;63.82;97464.80;111632;1196;60853;-23
2021/09/24 10:58:37;;;;;;;2.10;0.50;;;;;;;12.56;63.77;97488.06;111727;1196;74225;-23
2021/09/24 11:01:11;;;;;;;3.30;1.00;;;;;;;12.70;63.50;97499.92;111626;1196;74643;-23
2021/09/24 11:04:10;;;;;;;4.00;1.00;;;;;;;12.59;63.29;97483.37;111646;1197;72970;-23
2021/09/24 11:23:36;;;;;;;3.80;1.10;;;;;;;11.99;66.33;97514.23;110748;1202;615566;-23
2021/09/24 11:26:11;;;;;;;;;;;;;;;12.53;63.09;97492.87;111949;1196;60812;-22
2021/09/24 11:28:38;;;;;;;3.30;0.70;;;;;;;12.82;62.51;97496.29;111913;1196;61516;-22
2021/09/24 11:31:06;;;;;;;6.20;1.20;;;;;;;12.68;62.69;97498.41;111925;1196;72612;-22
2021/09/24 11:33:43;;;;;;;3.60;0.70;;;;;;;12.55;63.54;97514.27;111935;1195;75760;-26
2021/09/24 11:36:10;;;;;;;2.70;1.00;;;;;;;12.48;63.60;97512.99;111702;1196;74164;-21
2021/09/24 11:38:37;;;;;;;3.70;0.70;;;;;;;12.31;62.94;97500.25;111683;1196;60860;-24
2021/09/24 11:41:05;;;;;;;3.50;1.10;;;;;;;12.27;63.80;97507.53;112009;1196;60804;-22
2021/09/24 11:43:34;;;;;;;2.30;1.10;;;;;;;12.23;63.28;97506.42;111816;1196;73158;-21
2021/09/24 11:46:18;;;;;;;4.40;0.90;;;;;;;12.27;63.27;97504.38;111580;1191;74261;-22
2021/09/24 11:48:46;;;;;;;3.10;0.90;;;;;;;12.34;62.60;97511.59;111666;1197;72035;-22
2021/09/24 11:51:14;;;;;;;7.50;0.90;;;;;;;12.52;62.86;97518.21;111824;1196;60791;-24
2021/09/24 11:53:55;;;;;;;5.40;0.90;;;;;;;12.68;63.36;97525.98;112031;1196;60889;-23
2021/09/24 11:56:38;;;;;;;5.90;1.10;;;;;;;12.76;62.41;97527.55;111634;1196;73639;-22
2021/09/24 11:59:06;;;;;;;4.60;0.80;;;;;;;12.81;62.06;97522.00;111820;1187;75700;-23
2021/09/24 12:01:34;;;;;;;3.80;0.90;;;;;;;12.79;61.65;97526.88;111685;1196;73849;-23
2021/09/24 12:04:03;;;;;;;6.50;0.80;;;;;;;12.71;59.79;97502.37;112116;1197;60812;-23
2021/09/24 12:06:35;;;;;;;3.40;0.80;;;;;;;12.66;60.52;97514.38;111874;1196;61695;-24
2021/09/24 12:09:08;;;;;;;7.20;1.50;;;;;;;12.59;60.10;97506.80;111767;1197;73194;-24
2021/09/24 12:11:47;;;;;;;4.60;0.80;;;;;;;12.62;58.68;97506.52;111678;1196;75821;-21